sensor_id;sensor_type;location;lat;lon;timestamp;P1;durP1;ratioP1;P2;durP2;ratioP2
19163;SDS011;9714;51.208;4.242;2023-10-09T00:02:11;12.27;;;5.00;;
19163;SDS011;9714;51.208;4.242;2023-10-09T00:04:40;13.50;;;4.50;;
19163;SDS011;9714;51.208;4.242;2023-10-09T00:07:11;14.20;;;5.10;;
19163;SDS011;9714;51.208;4.242;2023-10-09T00:09:43;16.40;;;5.03;;
19163;SDS011;9714;51.208;4.242;2023-10-09T00:12:16;12.30;;;4.73;;
19163;SDS011;9714;51.208;4.242;2023-10-09T00:14:49;15.43;;;5.23;;
19163;SDS011;9714;51.208;4.242;2023-10-09T00:17:29;14.83;;;5.70;;
19163;SDS011;9714;51.208;4.242;2023-10-09T00:20:03;14.07;;;5.40;;
19163;SDS011;9714;51.208;4.242;2023-10-09T00:23:07;13.00;;;5.27;;
19163;SDS011;9714;51.208;4.242;2023-10-09T00:28:56;15.50;;;5.97;;
19163;SDS011;9714;51.208;4.242;2023-10-09T00:34:23;12.23;;;4.63;;
19163;SDS011;9714;51.208;4.242;2023-10-09T00:36:53;12.17;;;5.13;;
19163;SDS011;9714;51.208;4.242;2023-10-09T00:39:22;19.43;;;5.80;;
19163;SDS011;9714;51.208;4.242;2023-10-09T00:42:12;13.27;;;6.13;;
19163;SDS011;9714;51.208;4.242;2023-10-09T00:44:48;14.17;;;5.60;;
19163;SDS011;9714;51.208;4.242;2023-10-09T00:47:16;17.27;;;6.40;;
19163;SDS011;9714;51.208;4.242;2023-10-09T00:49:54;15.13;;;5.87;;
19163;SDS011;9714;51.208;4.242;2023-10-09T00:52:28;13.07;;;5.43;;
19163;SDS011;9714;51.208;4.242;2023-10-09T00:55:10;15.90;;;6.00;;
19163;SDS011;9714;51.208;4.242;2023-10-09T00:57:56;13.23;;;5.10;;
19163;SDS011;9714;51.208;4.242;2023-10-09T01:00:30;15.03;;;5.43;;
19163;SDS011;9714;51.208;4.242;2023-10-09T01:03:11;15.67;;;5.77;;
19163;SDS011;9714;51.208;4.242;2023-10-09T01:05:51;15.53;;;5.30;;
19163;SDS011;9714;51.208;4.242;2023-10-09T01:08:42;14.00;;;5.07;;
19163;SDS011;9714;51.208;4.242;2023-10-09T01:11:40;15.23;;;5.37;;
19163;SDS011;9714;51.208;4.242;2023-10-09T01:14:31;18.40;;;5.00;;
19163;SDS011;9714;51.208;4.242;2023-10-09T01:30:40;14.53;;;5.77;;
19163;SDS011;9714;51.208;4.242;2023-10-09T01:33:09;17.50;;;6.40;;
19163;SDS011;9714;51.208;4.242;2023-10-09T01:35:56;14.63;;;6.13;;
19163;SDS011;9714;51.208;4.242;2023-10-09T01:38:24;21.33;;;6.53;;
19163;SDS011;9714;51.208;4.242;2023-10-09T01:41:23;14.40;;;6.57;;
19163;SDS011;9714;51.208;4.242;2023-10-09T01:44:05;18.47;;;6.57;;
19163;SDS011;9714;51.208;4.242;2023-10-09T01:46:39;12.73;;;5.83;;
19163;SDS011;9714;51.208;4.242;2023-10-09T01:49:07;16.77;;;7.17;;
19163;SDS011;9714;51.208;4.242;2023-10-09T01:51:42;15.93;;;6.10;;
19163;SDS011;9714;51.208;4.242;2023-10-09T01:54:10;17.57;;;6.73;;
19163;SDS011;9714;51.208;4.242;2023-10-09T01:56:54;17.13;;;6.70;;
19163;SDS011;9714;51.208;4.242;2023-10-09T01:59:23;24.30;;;6.60;;
19163;SDS011;9714;51.208;4.242;2023-10-09T02:01:59;15.40;;;6.70;;
19163;SDS011;9714;51.208;4.242;2023-10-09T02:04:46;16.50;;;7.03;;
19163;SDS011;9714;51.208;4.242;2023-10-09T02:07:31;18.43;;;6.30;;
19163;SDS011;9714;51.208;4.242;2023-10-09T02:10:08;16.37;;;6.50;;
19163;SDS011;9714;51.208;4.242;2023-10-09T02:12:48;14.83;;;5.70;;
19163;SDS011;9714;51.208;4.242;2023-10-09T02:15:19;18.43;;;7.30;;
19163;SDS011;9714;51.208;4.242;2023-10-09T02:18:07;16.70;;;8.00;;
19163;SDS011;9714;51.208;4.242;2023-10-09T02:21:06;15.10;;;7.07;;
19163;SDS011;9714;51.208;4.242;2023-10-09T02:23:54;14.37;;;6.43;;
19163;SDS011;9714;51.208;4.242;2023-10-09T02:26:25;15.33;;;6.63;;
19163;SDS011;9714;51.208;4.242;2023-10-09T02:29:11;16.30;;;6.93;;
19163;SDS011;9714;51.208;4.242;2023-10-09T02:31:54;19.27;;;7.60;;
19163;SDS011;9714;51.208;4.242;2023-10-09T02:37:20;16.87;;;6.67;;
19163;SDS011;9714;51.208;4.242;2023-10-09T02:39:50;17.90;;;8.17;;
19163;SDS011;9714;51.208;4.242;2023-10-09T02:42:20;16.90;;;7.10;;
19163;SDS011;9714;51.208;4.242;2023-10-09T02:44:54;15.63;;;6.33;;
19163;SDS011;9714;51.208;4.242;2023-10-09T02:47:36;18.63;;;6.77;;
19163;SDS011;9714;51.208;4.242;2023-10-09T02:53:57;17.30;;;6.50;;
19163;SDS011;9714;51.208;4.242;2023-10-09T02:56:37;15.90;;;7.50;;
19163;SDS011;9714;51.208;4.242;2023-10-09T02:59:23;16.57;;;7.27;;
19163;SDS011;9714;51.208;4.242;2023-10-09T03:02:24;19.77;;;6.23;;
19163;SDS011;9714;51.208;4.242;2023-10-09T03:04:53;16.07;;;6.23;;
19163;SDS011;9714;51.208;4.242;2023-10-09T03:07:21;20.07;;;6.37;;
19163;SDS011;9714;51.208;4.242;2023-10-09T03:09:54;15.87;;;6.90;;
19163;SDS011;9714;51.208;4.242;2023-10-09T03:12:30;15.57;;;6.60;;
19163;SDS011;9714;51.208;4.242;2023-10-09T03:20:33;20.67;;;7.53;;
19163;SDS011;9714;51.208;4.242;2023-10-09T03:23:02;19.80;;;7.53;;
19163;SDS011;9714;51.208;4.242;2023-10-09T03:25:35;16.67;;;6.57;;
19163;SDS011;9714;51.208;4.242;2023-10-09T03:28:03;15.63;;;6.57;;
19163;SDS011;9714;51.208;4.242;2023-10-09T03:30:33;21.10;;;7.60;;
19163;SDS011;9714;51.208;4.242;2023-10-09T03:33:01;18.03;;;7.30;;
19163;SDS011;9714;51.208;4.242;2023-10-09T03:45:44;17.40;;;7.83;;
19163;SDS011;9714;51.208;4.242;2023-10-09T04:01:04;17.43;;;6.90;;
19163;SDS011;9714;51.208;4.242;2023-10-09T04:10:46;17.00;;;6.93;;
19163;SDS011;9714;51.208;4.242;2023-10-09T04:13:45;16.30;;;7.83;;
19163;SDS011;9714;51.208;4.242;2023-10-09T04:16:40;17.40;;;7.33;;
19163;SDS011;9714;51.208;4.242;2023-10-09T04:19:17;18.23;;;8.10;;
19163;SDS011;9714;51.208;4.242;2023-10-09T04:21:53;17.27;;;7.10;;
19163;SDS011;9714;51.208;4.242;2023-10-09T04:27:48;19.80;;;9.13;;
19163;SDS011;9714;51.208;4.242;2023-10-09T04:30:24;17.03;;;8.03;;
19163;SDS011;9714;51.208;4.242;2023-10-09T04:33:00;22.17;;;8.30;;
19163;SDS011;9714;51.208;4.242;2023-10-09T04:35:42;19.03;;;9.23;;
19163;SDS011;9714;51.208;4.242;2023-10-09T04:41:00;18.13;;;8.33;;
19163;SDS011;9714;51.208;4.242;2023-10-09T04:43:31;18.83;;;8.77;;
19163;SDS011;9714;51.208;4.242;2023-10-09T04:45:58;23.33;;;8.83;;
19163;SDS011;9714;51.208;4.242;2023-10-09T04:48:40;19.43;;;8.10;;
19163;SDS011;9714;51.208;4.242;2023-10-09T04:51:16;19.93;;;9.13;;
19163;SDS011;9714;51.208;4.242;2023-10-09T04:53:53;18.30;;;8.77;;
19163;SDS011;9714;51.208;4.242;2023-10-09T04:56:39;22.93;;;9.90;;
19163;SDS011;9714;51.208;4.242;2023-10-09T04:59:23;23.17;;;9.77;;
19163;SDS011;9714;51.208;4.242;2023-10-09T05:01:54;19.87;;;9.87;;
19163;SDS011;9714;51.208;4.242;2023-10-09T05:04:27;18.87;;;9.53;;
19163;SDS011;9714;51.208;4.242;2023-10-09T05:07:07;21.87;;;9.77;;
19163;SDS011;9714;51.208;4.242;2023-10-09T05:09:58;21.40;;;9.67;;
19163;SDS011;9714;51.208;4.242;2023-10-09T05:12:40;21.43;;;10.17;;
19163;SDS011;9714;51.208;4.242;2023-10-09T05:15:12;19.00;;;10.37;;
19163;SDS011;9714;51.208;4.242;2023-10-09T05:17:50;21.57;;;9.60;;
19163;SDS011;9714;51.208;4.242;2023-10-09T05:20:25;26.10;;;11.13;;
19163;SDS011;9714;51.208;4.242;2023-10-09T05:25:52;24.70;;;10.43;;
19163;SDS011;9714;51.208;4.242;2023-10-09T05:28:33;24.37;;;10.60;;
19163;SDS011;9714;51.208;4.242;2023-10-09T05:31:33;25.13;;;11.53;;
19163;SDS011;9714;51.208;4.242;2023-10-09T05:34:21;25.40;;;10.97;;
19163;SDS011;9714;51.208;4.242;2023-10-09T05:36:49;28.93;;;11.10;;
19163;SDS011;9714;51.208;4.242;2023-10-09T05:39:15;26.57;;;11.93;;
19163;SDS011;9714;51.208;4.242;2023-10-09T05:41:49;28.47;;;11.87;;
19163;SDS011;9714;51.208;4.242;2023-10-09T05:44:25;22.17;;;11.33;;
19163;SDS011;9714;51.208;4.242;2023-10-09T05:47:18;25.27;;;11.63;;
19163;SDS011;9714;51.208;4.242;2023-10-09T05:49:59;27.40;;;11.37;;
19163;SDS011;9714;51.208;4.242;2023-10-09T05:52:44;26.67;;;12.10;;
19163;SDS011;9714;51.208;4.242;2023-10-09T05:55:26;33.57;;;13.70;;
19163;SDS011;9714;51.208;4.242;2023-10-09T05:58:12;26.27;;;12.07;;
19163;SDS011;9714;51.208;4.242;2023-10-09T06:00:57;25.37;;;13.00;;
19163;SDS011;9714;51.208;4.242;2023-10-09T06:03:45;29.10;;;13.67;;
19163;SDS011;9714;51.208;4.242;2023-10-09T06:06:23;28.03;;;12.83;;
19163;SDS011;9714;51.208;4.242;2023-10-09T06:09:13;28.37;;;13.53;;
19163;SDS011;9714;51.208;4.242;2023-10-09T06:12:04;28.37;;;13.27;;
19163;SDS011;9714;51.208;4.242;2023-10-09T06:15:02;29.10;;;12.87;;
19163;SDS011;9714;51.208;4.242;2023-10-09T06:18:07;27.07;;;14.00;;
19163;SDS011;9714;51.208;4.242;2023-10-09T06:20:57;30.37;;;14.23;;
19163;SDS011;9714;51.208;4.242;2023-10-09T06:23:59;27.30;;;13.30;;
19163;SDS011;9714;51.208;4.242;2023-10-09T06:26:42;29.77;;;12.97;;
19163;SDS011;9714;51.208;4.242;2023-10-09T06:29:30;32.53;;;14.30;;
19163;SDS011;9714;51.208;4.242;2023-10-09T06:32:02;25.03;;;12.47;;
19163;SDS011;9714;51.208;4.242;2023-10-09T06:34:50;25.27;;;13.50;;
19163;SDS011;9714;51.208;4.242;2023-10-09T06:37:44;28.47;;;12.77;;
19163;SDS011;9714;51.208;4.242;2023-10-09T06:40:33;31.40;;;13.63;;
19163;SDS011;9714;51.208;4.242;2023-10-09T06:43:22;29.50;;;13.23;;
19163;SDS011;9714;51.208;4.242;2023-10-09T06:46:04;27.60;;;13.17;;
19163;SDS011;9714;51.208;4.242;2023-10-09T06:49:00;30.63;;;12.83;;
19163;SDS011;9714;51.208;4.242;2023-10-09T06:51:50;28.87;;;12.90;;
19163;SDS011;9714;51.208;4.242;2023-10-09T06:54:35;28.93;;;13.47;;
19163;SDS011;9714;51.208;4.242;2023-10-09T06:57:17;25.67;;;13.57;;
19163;SDS011;9714;51.208;4.242;2023-10-09T06:59:59;29.50;;;12.10;;
19163;SDS011;9714;51.208;4.242;2023-10-09T07:02:54;24.60;;;12.90;;
19163;SDS011;9714;51.208;4.242;2023-10-09T07:05:23;31.87;;;13.80;;
19163;SDS011;9714;51.208;4.242;2023-10-09T07:07:57;31.97;;;14.27;;
19163;SDS011;9714;51.208;4.242;2023-10-09T07:10:46;25.13;;;13.60;;
19163;SDS011;9714;51.208;4.242;2023-10-09T07:13:28;25.40;;;12.70;;
19163;SDS011;9714;51.208;4.242;2023-10-09T07:16:02;23.90;;;11.80;;
19163;SDS011;9714;51.208;4.242;2023-10-09T07:18:48;30.43;;;13.03;;
19163;SDS011;9714;51.208;4.242;2023-10-09T07:21:20;27.90;;;13.00;;
19163;SDS011;9714;51.208;4.242;2023-10-09T07:23:54;30.07;;;13.33;;
19163;SDS011;9714;51.208;4.242;2023-10-09T07:26:25;28.13;;;12.93;;
19163;SDS011;9714;51.208;4.242;2023-10-09T07:29:12;21.93;;;11.87;;
19163;SDS011;9714;51.208;4.242;2023-10-09T07:31:47;31.20;;;13.63;;
19163;SDS011;9714;51.208;4.242;2023-10-09T07:34:24;24.13;;;11.20;;
19163;SDS011;9714;51.208;4.242;2023-10-09T07:37:17;25.87;;;13.17;;
19163;SDS011;9714;51.208;4.242;2023-10-09T07:39:49;24.37;;;12.97;;
19163;SDS011;9714;51.208;4.242;2023-10-09T07:42:26;24.47;;;11.87;;
19163;SDS011;9714;51.208;4.242;2023-10-09T07:45:09;26.83;;;12.57;;
19163;SDS011;9714;51.208;4.242;2023-10-09T07:47:59;25.77;;;11.60;;
19163;SDS011;9714;51.208;4.242;2023-10-09T07:50:36;26.50;;;12.77;;
19163;SDS011;9714;51.208;4.242;2023-10-09T07:53:15;23.77;;;12.30;;
19163;SDS011;9714;51.208;4.242;2023-10-09T07:55:45;29.77;;;12.87;;
19163;SDS011;9714;51.208;4.242;2023-10-09T07:58:24;25.80;;;12.17;;
19163;SDS011;9714;51.208;4.242;2023-10-09T08:00:52;25.97;;;11.63;;
19163;SDS011;9714;51.208;4.242;2023-10-09T08:03:33;24.73;;;11.87;;
19163;SDS011;9714;51.208;4.242;2023-10-09T08:06:07;29.43;;;12.07;;
19163;SDS011;9714;51.208;4.242;2023-10-09T08:08:55;29.63;;;11.57;;
19163;SDS011;9714;51.208;4.242;2023-10-09T08:11:36;26.70;;;13.50;;
19163;SDS011;9714;51.208;4.242;2023-10-09T08:14:19;29.63;;;12.63;;
19163;SDS011;9714;51.208;4.242;2023-10-09T08:17:09;30.43;;;12.70;;
19163;SDS011;9714;51.208;4.242;2023-10-09T08:19:46;26.85;;;11.50;;
19163;SDS011;9714;51.208;4.242;2023-10-09T08:22:24;24.60;;;11.80;;
19163;SDS011;9714;51.208;4.242;2023-10-09T08:25:17;27.70;;;11.48;;
19163;SDS011;9714;51.208;4.242;2023-10-09T08:28:03;23.00;;;11.40;;
19163;SDS011;9714;51.208;4.242;2023-10-09T08:30:53;23.55;;;11.73;;
19163;SDS011;9714;51.208;4.242;2023-10-09T08:33:44;30.83;;;11.53;;
19163;SDS011;9714;51.208;4.242;2023-10-09T08:39:20;25.80;;;11.50;;
19163;SDS011;9714;51.208;4.242;2023-10-09T08:42:02;24.25;;;12.55;;
19163;SDS011;9714;51.208;4.242;2023-10-09T08:47:14;22.98;;;10.45;;
19163;SDS011;9714;51.208;4.242;2023-10-09T08:49:43;25.13;;;10.80;;
19163;SDS011;9714;51.208;4.242;2023-10-09T08:52:23;23.73;;;11.07;;
19163;SDS011;9714;51.208;4.242;2023-10-09T08:54:50;22.67;;;10.73;;
19163;SDS011;9714;51.208;4.242;2023-10-09T08:57:34;21.02;;;10.05;;
19163;SDS011;9714;51.208;4.242;2023-10-09T09:02:39;23.52;;;11.10;;
19163;SDS011;9714;51.208;4.242;2023-10-09T09:05:16;25.20;;;10.73;;
19163;SDS011;9714;51.208;4.242;2023-10-09T09:07:47;25.80;;;10.80;;
19163;SDS011;9714;51.208;4.242;2023-10-09T09:10:30;24.63;;;11.43;;
19163;SDS011;9714;51.208;4.242;2023-10-09T09:13:39;23.10;;;11.27;;
19163;SDS011;9714;51.208;4.242;2023-10-09T09:19:45;22.17;;;11.10;;
19163;SDS011;9714;51.208;4.242;2023-10-09T09:22:55;24.63;;;10.82;;
19163;SDS011;9714;51.208;4.242;2023-10-09T09:32:01;22.30;;;10.27;;
19163;SDS011;9714;51.208;4.242;2023-10-09T09:34:20;27.05;;;11.88;;
19163;SDS011;9714;51.208;4.242;2023-10-09T09:37:00;24.05;;;10.55;;
19163;SDS011;9714;51.208;4.242;2023-10-09T09:39:41;25.88;;;10.68;;
19163;SDS011;9714;51.208;4.242;2023-10-09T09:42:12;22.08;;;9.85;;
19163;SDS011;9714;51.208;4.242;2023-10-09T09:44:43;28.85;;;12.40;;
19163;SDS011;9714;51.208;4.242;2023-10-09T09:47:14;20.48;;;9.68;;
19163;SDS011;9714;51.208;4.242;2023-10-09T09:49:55;22.52;;;11.07;;
19163;SDS011;9714;51.208;4.242;2023-10-09T09:52:30;24.70;;;10.57;;
19163;SDS011;9714;51.208;4.242;2023-10-09T09:55:10;21.05;;;9.80;;
19163;SDS011;9714;51.208;4.242;2023-10-09T09:57:44;23.63;;;10.07;;
19163;SDS011;9714;51.208;4.242;2023-10-09T10:00:16;21.60;;;9.10;;
19163;SDS011;9714;51.208;4.242;2023-10-09T10:02:57;20.60;;;9.23;;
19163;SDS011;9714;51.208;4.242;2023-10-09T10:05:32;21.65;;;9.48;;
19163;SDS011;9714;51.208;4.242;2023-10-09T10:08:03;21.15;;;9.45;;
19163;SDS011;9714;51.208;4.242;2023-10-09T10:10:40;19.83;;;9.48;;
19163;SDS011;9714;51.208;4.242;2023-10-09T10:13:34;21.25;;;9.52;;
19163;SDS011;9714;51.208;4.242;2023-10-09T10:16:24;21.55;;;9.30;;
19163;SDS011;9714;51.208;4.242;2023-10-09T10:19:01;18.73;;;9.25;;
19163;SDS011;9714;51.208;4.242;2023-10-09T10:21:43;19.63;;;9.35;;
19163;SDS011;9714;51.208;4.242;2023-10-09T10:27:27;23.88;;;10.20;;
19163;SDS011;9714;51.208;4.242;2023-10-09T10:30:28;22.05;;;10.27;;
19163;SDS011;9714;51.208;4.242;2023-10-09T10:33:02;20.88;;;9.65;;
19163;SDS011;9714;51.208;4.242;2023-10-09T10:35:43;23.40;;;10.10;;
19163;SDS011;9714;51.208;4.242;2023-10-09T10:38:30;21.85;;;10.38;;
19163;SDS011;9714;51.208;4.242;2023-10-09T10:41:10;23.98;;;10.27;;
19163;SDS011;9714;51.208;4.242;2023-10-09T10:43:43;20.48;;;9.57;;
19163;SDS011;9714;51.208;4.242;2023-10-09T10:46:20;20.58;;;10.95;;
19163;SDS011;9714;51.208;4.242;2023-10-09T10:49:04;24.08;;;11.43;;
19163;SDS011;9714;51.208;4.242;2023-10-09T10:51:46;23.95;;;10.02;;
19163;SDS011;9714;51.208;4.242;2023-10-09T10:54:20;24.33;;;11.27;;
19163;SDS011;9714;51.208;4.242;2023-10-09T10:57:19;26.88;;;10.95;;
19163;SDS011;9714;51.208;4.242;2023-10-09T11:00:19;32.42;;;11.30;;
19163;SDS011;9714;51.208;4.242;2023-10-09T11:03:12;27.85;;;10.60;;
19163;SDS011;9714;51.208;4.242;2023-10-09T11:05:54;22.90;;;11.23;;
19163;SDS011;9714;51.208;4.242;2023-10-09T11:08:43;21.67;;;11.43;;
19163;SDS011;9714;51.208;4.242;2023-10-09T11:11:20;22.45;;;10.35;;
19163;SDS011;9714;51.208;4.242;2023-10-09T11:13:50;25.33;;;11.85;;
19163;SDS011;9714;51.208;4.242;2023-10-09T11:16:21;23.42;;;10.57;;
19163;SDS011;9714;51.208;4.242;2023-10-09T11:19:06;24.35;;;10.18;;
19163;SDS011;9714;51.208;4.242;2023-10-09T11:24:29;23.63;;;10.50;;
19163;SDS011;9714;51.208;4.242;2023-10-09T11:27:08;19.48;;;8.60;;
19163;SDS011;9714;51.208;4.242;2023-10-09T11:29:49;22.52;;;9.07;;
19163;SDS011;9714;51.208;4.242;2023-10-09T11:32:18;24.25;;;9.68;;
19163;SDS011;9714;51.208;4.242;2023-10-09T11:35:01;22.80;;;9.00;;
19163;SDS011;9714;51.208;4.242;2023-10-09T11:37:37;20.10;;;9.45;;
19163;SDS011;9714;51.208;4.242;2023-10-09T11:40:26;21.13;;;8.93;;
19163;SDS011;9714;51.208;4.242;2023-10-09T11:43:01;17.85;;;8.63;;
19163;SDS011;9714;51.208;4.242;2023-10-09T11:45:39;23.85;;;8.43;;
19163;SDS011;9714;51.208;4.242;2023-10-09T11:48:20;26.60;;;8.90;;
19163;SDS011;9714;51.208;4.242;2023-10-09T11:50:53;18.42;;;8.25;;
19163;SDS011;9714;51.208;4.242;2023-10-09T11:53:42;20.73;;;9.55;;
19163;SDS011;9714;51.208;4.242;2023-10-09T11:56:12;25.17;;;9.02;;
19163;SDS011;9714;51.208;4.242;2023-10-09T11:58:46;22.15;;;8.65;;
19163;SDS011;9714;51.208;4.242;2023-10-09T12:01:17;21.05;;;8.82;;
19163;SDS011;9714;51.208;4.242;2023-10-09T12:04:01;17.02;;;7.55;;
19163;SDS011;9714;51.208;4.242;2023-10-09T12:06:32;23.70;;;8.30;;
19163;SDS011;9714;51.208;4.242;2023-10-09T12:09:02;25.30;;;9.55;;
19163;SDS011;9714;51.208;4.242;2023-10-09T12:11:38;19.73;;;7.97;;
19163;SDS011;9714;51.208;4.242;2023-10-09T12:14:14;20.35;;;8.50;;
19163;SDS011;9714;51.208;4.242;2023-10-09T12:16:43;20.55;;;8.15;;
19163;SDS011;9714;51.208;4.242;2023-10-09T12:29:35;18.75;;;7.03;;
19163;SDS011;9714;51.208;4.242;2023-10-09T12:32:13;17.75;;;7.65;;
19163;SDS011;9714;51.208;4.242;2023-10-09T12:34:56;22.98;;;7.45;;
19163;SDS011;9714;51.208;4.242;2023-10-09T12:37:47;21.25;;;7.40;;
19163;SDS011;9714;51.208;4.242;2023-10-09T12:40:15;19.52;;;7.68;;
19163;SDS011;9714;51.208;4.242;2023-10-09T12:42:50;19.58;;;7.72;;
19163;SDS011;9714;51.208;4.242;2023-10-09T12:45:22;17.15;;;7.05;;
19163;SDS011;9714;51.208;4.242;2023-10-09T12:47:55;18.92;;;7.28;;
19163;SDS011;9714;51.208;4.242;2023-10-09T12:50:24;16.27;;;6.82;;
19163;SDS011;9714;51.208;4.242;2023-10-09T12:53:06;21.55;;;6.95;;
19163;SDS011;9714;51.208;4.242;2023-10-09T12:55:36;23.75;;;7.43;;
19163;SDS011;9714;51.208;4.242;2023-10-09T12:58:08;22.65;;;6.20;;
19163;SDS011;9714;51.208;4.242;2023-10-09T13:00:40;20.35;;;7.07;;
19163;SDS011;9714;51.208;4.242;2023-10-09T13:03:18;19.23;;;6.57;;
19163;SDS011;9714;51.208;4.242;2023-10-09T13:05:54;17.65;;;6.47;;
19163;SDS011;9714;51.208;4.242;2023-10-09T13:08:26;16.63;;;7.10;;
19163;SDS011;9714;51.208;4.242;2023-10-09T13:11:15;12.93;;;5.97;;
19163;SDS011;9714;51.208;4.242;2023-10-09T13:13:45;19.25;;;6.03;;
19163;SDS011;9714;51.208;4.242;2023-10-09T13:16:16;18.25;;;6.13;;
19163;SDS011;9714;51.208;4.242;2023-10-09T13:18:49;15.05;;;6.13;;
19163;SDS011;9714;51.208;4.242;2023-10-09T13:21:17;16.85;;;5.82;;
19163;SDS011;9714;51.208;4.242;2023-10-09T13:23:45;16.08;;;6.28;;
19163;SDS011;9714;51.208;4.242;2023-10-09T13:26:15;17.77;;;6.70;;
19163;SDS011;9714;51.208;4.242;2023-10-09T13:28:54;19.13;;;6.25;;
19163;SDS011;9714;51.208;4.242;2023-10-09T13:31:23;17.90;;;6.88;;
19163;SDS011;9714;51.208;4.242;2023-10-09T13:33:54;24.20;;;6.47;;
19163;SDS011;9714;51.208;4.242;2023-10-09T13:36:21;13.43;;;5.53;;
19163;SDS011;9714;51.208;4.242;2023-10-09T13:38:58;18.92;;;6.78;;
19163;SDS011;9714;51.208;4.242;2023-10-09T13:41:46;17.30;;;5.88;;
19163;SDS011;9714;51.208;4.242;2023-10-09T13:44:14;17.35;;;5.53;;
19163;SDS011;9714;51.208;4.242;2023-10-09T13:46:41;15.63;;;5.10;;
19163;SDS011;9714;51.208;4.242;2023-10-09T13:49:13;14.20;;;4.90;;
19163;SDS011;9714;51.208;4.242;2023-10-09T13:51:42;12.23;;;4.97;;
19163;SDS011;9714;51.208;4.242;2023-10-09T13:54:10;15.88;;;5.20;;
19163;SDS011;9714;51.208;4.242;2023-10-09T13:56:45;14.15;;;4.80;;
19163;SDS011;9714;51.208;4.242;2023-10-09T13:59:12;14.70;;;4.43;;
19163;SDS011;9714;51.208;4.242;2023-10-09T14:01:39;10.38;;;4.13;;
19163;SDS011;9714;51.208;4.242;2023-10-09T14:04:14;12.20;;;4.20;;
19163;SDS011;9714;51.208;4.242;2023-10-09T14:06:43;14.40;;;4.32;;
19163;SDS011;9714;51.208;4.242;2023-10-09T14:09:14;13.45;;;4.63;;
19163;SDS011;9714;51.208;4.242;2023-10-09T14:11:56;10.77;;;3.35;;
19163;SDS011;9714;51.208;4.242;2023-10-09T14:14:32;13.57;;;3.83;;
19163;SDS011;9714;51.208;4.242;2023-10-09T14:17:03;10.93;;;3.85;;
19163;SDS011;9714;51.208;4.242;2023-10-09T14:19:38;10.52;;;3.33;;
19163;SDS011;9714;51.208;4.242;2023-10-09T14:22:11;10.68;;;4.00;;
19163;SDS011;9714;51.208;4.242;2023-10-09T14:24:40;14.02;;;4.53;;
19163;SDS011;9714;51.208;4.242;2023-10-09T14:27:10;12.50;;;3.83;;
19163;SDS011;9714;51.208;4.242;2023-10-09T14:29:42;13.10;;;4.28;;
19163;SDS011;9714;51.208;4.242;2023-10-09T14:32:19;12.65;;;4.18;;
19163;SDS011;9714;51.208;4.242;2023-10-09T14:34:53;11.30;;;4.57;;
19163;SDS011;9714;51.208;4.242;2023-10-09T14:37:26;15.30;;;4.75;;
19163;SDS011;9714;51.208;4.242;2023-10-09T14:39:53;12.98;;;4.53;;
19163;SDS011;9714;51.208;4.242;2023-10-09T14:42:21;10.02;;;4.07;;
19163;SDS011;9714;51.208;4.242;2023-10-09T14:44:52;9.07;;;3.42;;
19163;SDS011;9714;51.208;4.242;2023-10-09T14:47:20;14.35;;;4.63;;
19163;SDS011;9714;51.208;4.242;2023-10-09T14:49:47;14.15;;;4.03;;
19163;SDS011;9714;51.208;4.242;2023-10-09T14:52:16;12.00;;;3.92;;
19163;SDS011;9714;51.208;4.242;2023-10-09T14:54:46;12.00;;;4.40;;
19163;SDS011;9714;51.208;4.242;2023-10-09T14:57:15;12.43;;;3.72;;
19163;SDS011;9714;51.208;4.242;2023-10-09T14:59:45;15.88;;;3.92;;
19163;SDS011;9714;51.208;4.242;2023-10-09T15:02:17;9.70;;;3.35;;
19163;SDS011;9714;51.208;4.242;2023-10-09T15:04:44;13.02;;;4.35;;
19163;SDS011;9714;51.208;4.242;2023-10-09T15:07:12;13.23;;;4.60;;
19163;SDS011;9714;51.208;4.242;2023-10-09T15:09:41;12.65;;;4.10;;
19163;SDS011;9714;51.208;4.242;2023-10-09T15:12:10;10.30;;;3.40;;
19163;SDS011;9714;51.208;4.242;2023-10-09T15:14:37;15.45;;;4.45;;
19163;SDS011;9714;51.208;4.242;2023-10-09T15:17:04;12.00;;;4.10;;
19163;SDS011;9714;51.208;4.242;2023-10-09T15:19:32;14.57;;;4.40;;
19163;SDS011;9714;51.208;4.242;2023-10-09T15:21:59;12.27;;;4.40;;
19163;SDS011;9714;51.208;4.242;2023-10-09T15:24:27;11.95;;;3.65;;
19163;SDS011;9714;51.208;4.242;2023-10-09T15:26:56;10.60;;;4.10;;
19163;SDS011;9714;51.208;4.242;2023-10-09T15:29:23;13.50;;;3.83;;
19163;SDS011;9714;51.208;4.242;2023-10-09T15:31:55;15.45;;;3.92;;
19163;SDS011;9714;51.208;4.242;2023-10-09T15:34:29;13.65;;;3.95;;
19163;SDS011;9714;51.208;4.242;2023-10-09T15:36:56;15.70;;;5.22;;
19163;SDS011;9714;51.208;4.242;2023-10-09T15:39:23;13.00;;;4.30;;
19163;SDS011;9714;51.208;4.242;2023-10-09T15:41:50;7.93;;;3.38;;
19163;SDS011;9714;51.208;4.242;2023-10-09T15:44:20;13.48;;;4.18;;
19163;SDS011;9714;51.208;4.242;2023-10-09T15:46:51;17.70;;;3.92;;
19163;SDS011;9714;51.208;4.242;2023-10-09T15:49:24;11.75;;;4.10;;
19163;SDS011;9714;51.208;4.242;2023-10-09T15:51:52;11.95;;;3.15;;
19163;SDS011;9714;51.208;4.242;2023-10-09T15:54:19;10.90;;;4.00;;
19163;SDS011;9714;51.208;4.242;2023-10-09T15:56:46;11.77;;;4.57;;
19163;SDS011;9714;51.208;4.242;2023-10-09T15:59:13;12.23;;;4.30;;
19163;SDS011;9714;51.208;4.242;2023-10-09T16:01:43;11.23;;;3.55;;
19163;SDS011;9714;51.208;4.242;2023-10-09T16:04:10;11.43;;;4.07;;
19163;SDS011;9714;51.208;4.242;2023-10-09T16:06:37;11.50;;;4.32;;
19163;SDS011;9714;51.208;4.242;2023-10-09T16:09:05;12.20;;;4.50;;
19163;SDS011;9714;51.208;4.242;2023-10-09T16:11:37;13.70;;;4.00;;
19163;SDS011;9714;51.208;4.242;2023-10-09T16:14:04;13.60;;;3.78;;
19163;SDS011;9714;51.208;4.242;2023-10-09T16:16:34;12.00;;;4.05;;
19163;SDS011;9714;51.208;4.242;2023-10-09T16:19:08;11.23;;;4.13;;
19163;SDS011;9714;51.208;4.242;2023-10-09T16:21:35;22.02;;;4.75;;
19163;SDS011;9714;51.208;4.242;2023-10-09T16:24:03;17.80;;;4.22;;
19163;SDS011;9714;51.208;4.242;2023-10-09T16:26:31;11.27;;;4.30;;
19163;SDS011;9714;51.208;4.242;2023-10-09T16:29:05;17.05;;;5.28;;
19163;SDS011;9714;51.208;4.242;2023-10-09T16:31:33;13.38;;;4.35;;
19163;SDS011;9714;51.208;4.242;2023-10-09T16:34:00;12.40;;;4.10;;
19163;SDS011;9714;51.208;4.242;2023-10-09T16:36:30;14.40;;;3.63;;
19163;SDS011;9714;51.208;4.242;2023-10-09T16:38:57;10.30;;;3.80;;
19163;SDS011;9714;51.208;4.242;2023-10-09T16:41:25;11.60;;;4.38;;
19163;SDS011;9714;51.208;4.242;2023-10-09T16:43:52;12.20;;;4.15;;
19163;SDS011;9714;51.208;4.242;2023-10-09T16:46:22;11.13;;;4.22;;
19163;SDS011;9714;51.208;4.242;2023-10-09T16:48:49;11.98;;;4.18;;
19163;SDS011;9714;51.208;4.242;2023-10-09T16:51:20;14.07;;;4.03;;
19163;SDS011;9714;51.208;4.242;2023-10-09T16:53:49;16.75;;;4.10;;
19163;SDS011;9714;51.208;4.242;2023-10-09T16:56:17;20.52;;;4.53;;
19163;SDS011;9714;51.208;4.242;2023-10-09T16:58:45;10.57;;;4.20;;
19163;SDS011;9714;51.208;4.242;2023-10-09T17:01:15;9.50;;;3.70;;
19163;SDS011;9714;51.208;4.242;2023-10-09T17:03:46;11.38;;;4.28;;
19163;SDS011;9714;51.208;4.242;2023-10-09T17:06:20;15.77;;;5.72;;
19163;SDS011;9714;51.208;4.242;2023-10-09T17:08:50;15.20;;;4.53;;
19163;SDS011;9714;51.208;4.242;2023-10-09T17:11:17;14.50;;;4.25;;
19163;SDS011;9714;51.208;4.242;2023-10-09T17:13:48;16.25;;;4.95;;
19163;SDS011;9714;51.208;4.242;2023-10-09T17:16:15;17.92;;;5.50;;
19163;SDS011;9714;51.208;4.242;2023-10-09T17:18:44;12.63;;;4.85;;
19163;SDS011;9714;51.208;4.242;2023-10-09T17:21:13;13.32;;;5.05;;
19163;SDS011;9714;51.208;4.242;2023-10-09T17:23:41;15.90;;;4.72;;
19163;SDS011;9714;51.208;4.242;2023-10-09T17:26:11;14.30;;;5.68;;